createdAt,value
2023-03-29T00:03:02.161Z,100615.56
2023-03-29T00:08:05.191Z,100608.92
2023-03-29T00:13:08.448Z,100613.41
2023-03-29T00:18:11.347Z,100616.16
2023-03-29T00:23:14.381Z,100617.60
2023-03-29T00:28:17.115Z,100615.80
2023-03-29T00:33:23.253Z,100613.98
2023-03-29T00:38:26.161Z,100618.64
2023-03-29T00:43:30.350Z,100612.40
2023-03-29T00:48:33.164Z,100613.60
2023-03-29T00:53:39.751Z,100610.20
2023-03-29T00:58:57.327Z,100610.72
2023-03-29T01:04:18.049Z,100610.95
2023-03-29T01:09:27.061Z,100613.75
2023-03-29T01:14:35.228Z,100614.16
2023-03-29T01:19:46.189Z,100606.04
2023-03-29T01:25:14.665Z,100605.80
2023-03-29T01:30:49.398Z,100599.35
2023-03-29T01:36:00.178Z,100601.97
2023-03-29T01:41:06.034Z,100600.96
2023-03-29T01:46:25.117Z,100599.25
2023-03-29T01:51:51.348Z,100597.52
2023-03-29T01:56:57.322Z,100596.86
2023-03-29T02:02:05.014Z,100594.84
2023-03-29T02:07:09.316Z,100601.83
2023-03-29T02:12:13.625Z,100604.00
2023-03-29T02:17:22.134Z,100604.23
2023-03-29T02:22:30.572Z,100603.45
2023-03-29T02:27:33.526Z,100604.73
2023-03-29T02:33:05.979Z,100601.23
2023-03-29T02:38:11.410Z,100602.09
2023-03-29T02:43:16.197Z,100605.06
2023-03-29T02:48:22.320Z,100605.29
2023-03-29T02:53:30.733Z,100601.79
2023-03-29T02:58:33.514Z,100601.89
2023-03-29T03:03:36.628Z,100602.45
2023-03-29T03:08:40.107Z,100602.98
2023-03-29T03:13:43.338Z,100604.13
2023-03-29T03:18:46.275Z,100593.73
2023-03-29T03:23:49.431Z,100595.90
2023-03-29T03:28:52.174Z,100599.88
2023-03-29T03:33:55.392Z,100607.91
2023-03-29T03:38:58.191Z,100609.23
2023-03-29T03:44:01.011Z,100614.98
2023-03-29T03:49:04.605Z,100615.38
2023-03-29T03:54:07.353Z,100613.96
2023-03-29T03:59:10.920Z,100614.71
2023-03-29T04:04:14.605Z,100615.45
2023-03-29T04:09:18.141Z,100613.63
2023-03-29T04:14:21.639Z,100614.20
2023-03-29T04:19:24.425Z,100610.48
2023-03-29T04:24:27.276Z,100616.91
2023-03-29T04:29:30.460Z,100615.58
2023-03-29T04:34:33.218Z,100618.44
2023-03-29T04:39:39.188Z,100617.94
2023-03-29T04:44:43.680Z,100615.36
2023-03-29T04:49:46.569Z,100617.88
2023-03-29T04:54:49.305Z,100614.10
2023-03-29T04:59:52.066Z,100622.76
2023-03-29T05:04:54.836Z,100624.58
2023-03-29T05:09:57.870Z,100627.22
2023-03-29T05:15:00.635Z,100627.84
2023-03-29T05:20:13.244Z,100624.23
2023-03-29T05:25:17.672Z,100615.25
2023-03-29T05:30:20.691Z,100614.98
2023-03-29T05:35:25.527Z,100616.43
2023-03-29T05:40:29.615Z,100621.11
2023-03-29T05:45:33.620Z,100613.90
2023-03-29T05:50:37.294Z,100616.17
2023-03-29T05:55:40.714Z,100610.29
2023-03-29T06:00:43.866Z,100610.70
2023-03-29T06:05:56.442Z,100645.10
2023-03-29T06:11:04.526Z,100680.88
2023-03-29T06:16:10.231Z,100651.74
2023-03-29T06:21:16.106Z,100601.79
2023-03-29T06:26:19.232Z,100602.00
2023-03-29T06:31:22.155Z,100603.65
2023-03-29T06:36:25.968Z,100609.21
2023-03-29T06:41:46.864Z,100615.86
2023-03-29T06:47:02.110Z,100612.74
2023-03-29T06:52:07.726Z,100619.27
2023-03-29T06:57:10.599Z,100616.39
2023-03-29T07:02:13.457Z,100614.73
2023-03-29T07:07:22.763Z,100613.71
2023-03-29T07:12:26.451Z,100613.50
2023-03-29T07:17:29.284Z,100614.00
2023-03-29T07:22:33.364Z,100602.41
2023-03-29T07:27:37.472Z,100592.98
2023-03-29T07:32:44.367Z,100590.71
2023-03-29T07:38:16.532Z,100592.55
2023-03-29T07:43:18.378Z,100594.70
2023-03-29T07:48:21.237Z,100602.19
2023-03-29T07:53:24.621Z,100593.91
2023-03-29T07:58:31.016Z,100589.55
2023-03-29T08:03:35.487Z,100585.15
2023-03-29T08:08:38.406Z,100582.58
2023-03-29T08:13:42.252Z,100583.60
2023-03-29T08:18:45.995Z,100584.50
2023-03-29T08:23:49.906Z,100582.84
2023-03-29T08:28:53.396Z,100583.31
2023-03-29T08:33:56.503Z,100582.27
2023-03-29T08:38:59.728Z,100588.18
2023-03-29T08:44:20.791Z,100584.84
2023-03-29T08:49:24.146Z,100579.61
2023-03-29T08:54:33.318Z,100573.02
2023-03-29T08:59:37.492Z,100572.52
2023-03-29T09:04:42.569Z,100572.86
2023-03-29T09:09:45.636Z,100578.64
2023-03-29T09:15:02.007Z,100577.09
2023-03-29T09:20:19.358Z,100567.42
2023-03-29T09:26:01.024Z,100568.80
2023-03-29T09:31:15.113Z,100570.90
2023-03-29T09:36:43.630Z,100575.58
2023-03-29T09:42:02.061Z,100570.39
2023-03-29T09:47:18.847Z,100572.40
2023-03-29T09:52:31.869Z,100572.66
2023-03-29T09:57:35.300Z,100566.67
2023-03-29T10:02:38.373Z,100563.98
2023-03-29T10:08:09.119Z,100560.02
2023-03-29T10:13:43.653Z,100556.08
2023-03-29T10:18:47.431Z,100550.41
2023-03-29T10:23:58.476Z,100550.65
2023-03-29T10:29:03.960Z,100545.13
2023-03-29T10:34:09.286Z,100542.01
2023-03-29T10:39:16.398Z,100543.05
2023-03-29T10:44:33.317Z,100533.36
2023-03-29T10:49:41.847Z,100529.39
2023-03-29T10:54:45.693Z,100524.76
2023-03-29T11:00:14.883Z,100519.20
2023-03-29T11:05:31.467Z,100513.48
2023-03-29T11:11:04.452Z,100511.23
2023-03-29T11:16:25.996Z,100501.19
2023-03-29T11:22:01.853Z,100499.98
2023-03-29T11:27:35.011Z,100491.35
2023-03-29T11:32:56.819Z,100487.00
2023-03-29T11:38:12.260Z,100479.20
2023-03-29T11:43:26.312Z,100477.07
2023-03-29T11:48:36.294Z,100473.58
2023-03-29T11:53:51.910Z,100465.40
2023-03-29T11:59:01.472Z,100458.29
2023-03-29T12:04:13.146Z,100452.36
2023-03-29T12:09:27.778Z,100446.63
2023-03-29T12:14:40.250Z,100444.75
2023-03-29T12:20:04.627Z,100439.01
2023-03-29T12:25:12.884Z,100438.79
2023-03-29T12:30:33.836Z,100437.80
2023-03-29T12:35:49.063Z,100434.09
2023-03-29T12:41:00.651Z,100423.85
2023-03-29T12:46:24.619Z,100419.63
2023-03-29T12:51:35.743Z,100418.88
2023-03-29T12:56:54.722Z,100416.24
2023-03-29T13:02:04.338Z,100408.47
2023-03-29T13:07:16.962Z,100408.01
2023-03-29T13:12:24.633Z,100405.94
2023-03-29T13:18:04.200Z,100403.70
2023-03-29T13:23:19.209Z,100398.53
2023-03-29T13:28:40.359Z,100393.63
2023-03-29T13:33:48.871Z,100389.27
2023-03-29T13:38:54.297Z,100386.66
2023-03-29T13:43:58.004Z,100374.61
2023-03-29T13:49:13.201Z,100370.45
2023-03-29T13:54:40.756Z,100372.86
2023-03-29T13:59:50.719Z,100367.45
2023-03-29T14:04:54.113Z,100363.62
2023-03-29T14:09:59.364Z,100359.28
2023-03-29T14:15:05.471Z,100359.29
2023-03-29T14:20:11.759Z,100363.02
2023-03-29T14:25:17.939Z,100356.27
2023-03-29T14:30:29.105Z,100352.25
2023-03-29T14:35:33.443Z,100348.40
2023-03-29T14:40:36.651Z,100341.34
2023-03-29T14:45:39.641Z,100340.16
2023-03-29T14:50:45.529Z,100330.41
2023-03-29T14:55:53.560Z,100329.63
2023-03-29T15:00:56.578Z,100323.91
2023-03-29T15:06:03.936Z,100322.99
2023-03-29T15:11:18.211Z,100322.23
2023-03-29T15:16:30.585Z,100316.46
2023-03-29T15:21:36.076Z,100312.78
2023-03-29T15:26:38.942Z,100307.30
2023-03-29T15:31:42.433Z,100297.84
2023-03-29T15:36:46.475Z,100295.63
2023-03-29T15:41:51.638Z,100292.50
2023-03-29T15:46:55.650Z,100283.06
2023-03-29T15:52:00.501Z,100281.27
2023-03-29T15:57:07.365Z,100281.52
2023-03-29T16:02:24.527Z,100274.98
2023-03-29T16:07:27.406Z,100270.55
2023-03-29T16:12:30.342Z,100273.94
2023-03-29T16:17:33.900Z,100267.98
2023-03-29T16:22:37.087Z,100254.56
2023-03-29T16:27:40.187Z,100258.08
2023-03-29T16:32:43.336Z,100255.17
2023-03-29T16:37:46.167Z,100247.43
2023-03-29T16:42:48.951Z,100240.21
2023-03-29T16:47:51.886Z,100234.02
2023-03-29T16:52:54.804Z,100229.23
2023-03-29T16:57:57.668Z,100232.58
2023-03-29T17:03:03.326Z,100233.00
2023-03-29T17:08:06.725Z,100233.91
2023-03-29T17:13:10.012Z,100230.85
2023-03-29T17:18:14.359Z,100225.69
2023-03-29T17:23:18.150Z,100230.92
2023-03-29T17:28:25.803Z,100229.44
2023-03-29T17:33:29.043Z,100230.88
2023-03-29T17:38:34.200Z,100226.94
2023-03-29T17:43:39.543Z,100228.86
2023-03-29T17:48:46.282Z,100227.67
2023-03-29T17:53:50.010Z,100227.36
2023-03-29T17:58:52.857Z,100228.06
2023-03-29T18:03:55.634Z,100228.08
2023-03-29T18:09:03.113Z,100223.96
2023-03-29T18:14:06.147Z,100229.70
2023-03-29T18:19:10.751Z,100229.02
2023-03-29T18:24:13.591Z,100229.21
2023-03-29T18:29:16.433Z,100229.56
2023-03-29T18:34:19.238Z,100227.16
2023-03-29T18:39:22.113Z,100223.37
2023-03-29T18:44:27.417Z,100219.58
2023-03-29T18:49:30.233Z,100222.02
2023-03-29T18:54:32.962Z,100224.09
2023-03-29T18:59:38.594Z,100223.75
2023-03-29T19:04:41.377Z,100223.59
2023-03-29T19:09:44.439Z,100225.48
2023-03-29T19:14:47.191Z,100212.89
2023-03-29T19:19:50.005Z,100212.55
2023-03-29T19:24:52.769Z,100200.29
2023-03-29T19:29:55.671Z,100191.83
2023-03-29T19:34:58.571Z,100190.45
2023-03-29T19:40:01.284Z,100183.19
2023-03-29T19:45:06.116Z,100184.91
2023-03-29T19:50:09.303Z,100178.89
2023-03-29T19:55:12.744Z,100180.11
2023-03-29T20:00:15.973Z,100179.45
2023-03-29T20:05:19.078Z,100174.80
2023-03-29T20:10:22.398Z,100172.23
2023-03-29T20:15:26.044Z,100167.24
2023-03-29T20:20:29.967Z,100170.19
2023-03-29T20:25:35.035Z,100165.03
2023-03-29T20:30:37.778Z,100155.41
2023-03-29T20:35:40.591Z,100154.21
2023-03-29T20:40:43.395Z,100149.23
2023-03-29T20:45:53.860Z,100144.56
2023-03-29T20:50:57.798Z,100141.45
2023-03-29T20:56:00.642Z,100138.98
2023-03-29T21:01:03.806Z,100129.48
2023-03-29T21:06:07.341Z,100115.11
2023-03-29T21:11:13.116Z,100111.79
2023-03-29T21:16:15.950Z,100098.09
2023-03-29T21:21:18.737Z,100085.26
2023-03-29T21:26:23.590Z,100073.80
2023-03-29T21:31:26.463Z,100073.24
2023-03-29T21:36:29.326Z,100066.82
2023-03-29T21:41:32.304Z,100065.23
2023-03-29T21:46:35.151Z,100056.38
2023-03-29T21:51:38.136Z,100056.16
2023-03-29T21:56:40.978Z,100058.36
2023-03-29T22:01:43.832Z,100058.16
2023-03-29T22:06:47.070Z,100061.40
2023-03-29T22:11:50.217Z,100056.70
2023-03-29T22:16:53.030Z,100047.01
2023-03-29T22:22:01.688Z,100035.75
2023-03-29T22:27:04.501Z,100042.13
2023-03-29T22:32:07.361Z,100043.48
2023-03-29T22:37:10.294Z,100034.31
2023-03-29T22:42:13.198Z,100026.19
2023-03-29T22:47:16.524Z,100019.96
2023-03-29T22:52:19.260Z,100022.57
2023-03-29T22:57:22.038Z,100014.64
2023-03-29T23:02:24.882Z,100010.67
2023-03-29T23:07:28.392Z,100004.64
2023-03-29T23:12:31.215Z,100003.96
2023-03-29T23:17:34.982Z,100004.85
2023-03-29T23:22:39.728Z,100001.77
2023-03-29T23:27:43.313Z,99998.16
2023-03-29T23:32:46.978Z,99992.14
2023-03-29T23:37:49.811Z,99986.29
2023-03-29T23:42:59.342Z,99981.66
2023-03-29T23:48:02.263Z,99978.41
2023-03-29T23:53:05.100Z,99977.73
2023-03-29T23:58:08.232Z,99972.58
